Sd416 Nippon — SKPF — position and weather

sailwx.info

Track history (hours):
 
Tides and Currents Weather Stations Pressure Air Temp Water Temp Dewpoint Dewpoint Depression Visibility Wind Speed Wind Dir Waves Ship Positions

Sd416 Nippon

Last reported at 2017-Jul-24 20:28 UTC. Time now 2017-Jul-24 20:49 UTC.
Position N 58°29' E 010°26'.

Length 17 m; draft 2.5 m.

Type: Fishing. MMSI: 266163000.

Date/timePositionNaut miles runAvg speedWind from/ knotsBaromVisibWave heightAir tempDewpointWater temp
2017-Jul-24 20:28N 58°29' E 010°26'4 8.5
2017-Jul-24 19:57N 58°33' E 010°22'3 6.5
2017-Jul-24 19:27N 58°36' E 010°20'0 0.6
2017-Jul-24 19:00N 58°36' E 010°20'1 1.1
2017-Jul-24 18:30N 58°36' E 010°21'1 1.3
2017-Jul-24 18:00N 58°36' E 010°22'1 1.3
2017-Jul-24 16:58N 58°35' E 010°24'1 1.3
2017-Jul-24 16:22N 58°34' E 010°25'4 1.2
2017-Jul-24 13:00N 58°30' E 010°28'1 1.3
2017-Jul-24 12:31N 58°30' E 010°29'1 1.3
2017-Jul-24 12:00N 58°29' E 010°30'1 1.3
2017-Jul-24 11:30N 58°29' E 010°30'1 1.4
2017-Jul-24 11:00N 58°28' E 010°31'1 1.4
2017-Jul-24 10:30N 58°27' E 010°31'1 1.4
2017-Jul-24 09:55N 58°27' E 010°30'1 1.4
2017-Jul-24 09:30N 58°26' E 010°30'1 1.4
2017-Jul-24 09:00N 58°25' E 010°30'1 1.9
2017-Jul-24 08:31N 58°25' E 010°30'3 5.8
2017-Jul-24 08:00N 58°27' E 010°27'4 7.1
2017-Jul-24 07:30N 58°30' E 010°25'5 7.0
2017-Jul-24 06:47N 58°35' E 010°22'0 1.2
2017-Jul-24 06:30N 58°35' E 010°22'0 0.4
2017-Jul-24 06:00N 58°35' E 010°22'1 1.3
2017-Jul-24 05:30N 58°35' E 010°23'1 1.3
2017-Jul-24 05:00N 58°34' E 010°24'1 1.3
2017-Jul-24 04:30N 58°34' E 010°25'1 1.3
2017-Jul-24 04:00N 58°33' E 010°26'1 1.3
2017-Jul-24 03:30N 58°32' E 010°26'1 1.3
2017-Jul-24 03:00N 58°32' E 010°26'1 1.3
2017-Jul-24 02:30N 58°31' E 010°26'1 1.2
2017-Jul-24 02:00N 58°31' E 010°27'1 1.3
2017-Jul-24 01:30N 58°30' E 010°28'1 1.3
2017-Jul-24 01:00N 58°30' E 010°29'1 1.3
2017-Jul-24 00:30N 58°30' E 010°29'1 1.3
2017-Jul-24 00:00N 58°29' E 010°30'1 1.3
2017-Jul-23 23:30N 58°28' E 010°31'1 1.3
2017-Jul-23 23:00N 58°28' E 010°31'1 1.3
2017-Jul-23 22:30N 58°27' E 010°31'1 1.3
2017-Jul-23 22:00N 58°27' E 010°31'1 1.4
2017-Jul-23 21:30N 58°26' E 010°30'1 1.4
2017-Jul-23 21:00N 58°25' E 010°30'1 1.8
2017-Jul-23 20:30N 58°26' E 010°31'4 8.1
2017-Jul-23 20:00N 58°29' E 010°36'4 8.0
2017-Jul-23 19:30N 58°32' E 010°41'4 8.2
2017-Jul-23 19:00N 58°35' E 010°46'4 7.8
2017-Jul-23 18:30N 58°38' E 010°50'3 7.0
2017-Jul-23 18:00N 58°41' E 010°55'3 6.7
2017-Jul-23 17:30N 58°44' E 010°59'4 7.4
2017-Jul-23 17:00N 58°47' E 011°02'4 7.4
2017-Jul-23 16:30N 58°50' E 011°05'4 7.4
2017-Jul-23 16:00N 58°54' E 011°05'3 6.9
2017-Jul-23 15:30N 58°56' E 011°10'0 0.3
2017-Jul-23 15:00N 58°56' E 011°10'0 0.0
2017-Jul-23 14:30N 58°56' E 011°10'0 0.0
2017-Jul-23 14:00N 58°56' E 011°10'0 0.0
2017-Jul-23 13:30N 58°56' E 011°10'0 0.0
2017-Jul-23 13:00N 58°56' E 011°10'0 0.0
2017-Jul-23 12:30N 58°56' E 011°10'0 0.0
2017-Jul-23 12:00N 58°56' E 011°10'0 0.0
2017-Jul-23 11:30N 58°56' E 011°10'0 0.0
2017-Jul-23 11:00N 58°56' E 011°10'0 0.0
2017-Jul-23 10:30N 58°56' E 011°10'0 0.0
2017-Jul-23 10:00N 58°56' E 011°10'0 0.0
2017-Jul-23 09:30N 58°56' E 011°10'0 0.0
2017-Jul-23 09:00N 58°56' E 011°10'0 0.0
2017-Jul-23 08:30N 58°56' E 011°10'0 0.0
2017-Jul-23 08:00N 58°56' E 011°10'0 0.0
2017-Jul-23 07:30N 58°56' E 011°10'0 0.0
2017-Jul-23 07:00N 58°56' E 011°10'0 0.0
2017-Jul-23 06:30N 58°56' E 011°10'0 0.0
2017-Jul-23 06:00N 58°56' E 011°10'0 0.0
2017-Jul-23 05:30N 58°56' E 011°10'0 0.0
2017-Jul-23 05:00N 58°56' E 011°10'0 0.0
2017-Jul-23 04:30N 58°56' E 011°10'0 0.0
2017-Jul-23 04:00N 58°56' E 011°10'0 0.0
2017-Jul-23 03:30N 58°56' E 011°10'0 0.0
2017-Jul-23 03:00N 58°56' E 011°10'0 0.0
2017-Jul-23 02:30N 58°56' E 011°10'0 0.0
2017-Jul-23 02:00N 58°56' E 011°10'0 0.0
2017-Jul-23 01:30N 58°56' E 011°10'0 0.0
2017-Jul-23 01:00N 58°56' E 011°10'0 0.0
2017-Jul-23 00:30N 58°56' E 011°10'0 0.0
2017-Jul-23 00:00N 58°56' E 011°10'0 0.0
2017-Jul-22 23:30N 58°56' E 011°10'0 0.0
2017-Jul-22 23:00N 58°56' E 011°10'0 0.0
2017-Jul-22 22:30N 58°56' E 011°10'0 0.0
2017-Jul-22 22:00N 58°56' E 011°10'0 0.0
2017-Jul-22 21:30N 58°56' E 011°10'0 0.0
2017-Jul-22 21:00N 58°56' E 011°10'0 0.0
2017-Jul-22 20:30N 58°56' E 011°10'0 0.0
2017-Jul-22 20:00N 58°56' E 011°10'0 0.0
2017-Jul-22 19:30N 58°56' E 011°10'0 0.0
2017-Jul-22 19:00N 58°56' E 011°10'0 0.0
2017-Jul-22 18:30N 58°56' E 011°10'0 0.0
2017-Jul-22 18:00N 58°56' E 011°10'0 0.0
2017-Jul-22 17:30N 58°56' E 011°10'0 0.0
2017-Jul-22 17:00N 58°56' E 011°10'0 0.0
2017-Jul-22 16:30N 58°56' E 011°10'0 0.0
2017-Jul-22 16:00N 58°56' E 011°10'0 0.0
2017-Jul-22 15:30N 58°56' E 011°10'0 0.0
2017-Jul-22 15:00N 58°56' E 011°10'0 0.0
2017-Jul-22 14:00N 58°56' E 011°10'0 0.0
2017-Jul-22 13:30N 58°56' E 011°10'0 0.0
2017-Jul-22 13:00N 58°56' E 011°10'0 0.0
2017-Jul-22 12:30N 58°56' E 011°10'0 0.0
2017-Jul-22 12:00N 58°56' E 011°10'0 0.0
2017-Jul-22 11:30N 58°56' E 011°10'0 0.0
2017-Jul-22 11:00N 58°56' E 011°10'0 0.0
2017-Jul-22 10:30N 58°56' E 011°10'0 0.0
2017-Jul-22 10:00N 58°56' E 011°10'0 0.0
2017-Jul-22 09:30N 58°56' E 011°10'0 0.0
2017-Jul-22 09:00N 58°56' E 011°10'0 0.0
2017-Jul-22 08:30N 58°56' E 011°10'0 0.0
2017-Jul-22 08:00N 58°56' E 011°10'0 0.0
2017-Jul-22 07:30N 58°56' E 011°10'0 0.0
2017-Jul-22 07:00N 58°56' E 011°10'0 0.0
2017-Jul-22 06:30N 58°56' E 011°10'0 0.0
2017-Jul-22 06:00N 58°56' E 011°10'0 0.0
2017-Jul-22 05:30N 58°56' E 011°10'0 0.0
2017-Jul-22 05:00N 58°56' E 011°10'0 0.0
2017-Jul-22 04:30N 58°56' E 011°10'0 0.0
2017-Jul-22 04:00N 58°56' E 011°10'0 0.0
2017-Jul-22 03:30N 58°56' E 011°10'0 0.0
2017-Jul-22 03:00N 58°56' E 011°10'0 0.0
2017-Jul-22 02:30N 58°56' E 011°10'0 0.0
2017-Jul-22 02:00N 58°56' E 011°10'0 0.0
2017-Jul-22 01:30N 58°56' E 011°10'0 0.0
2017-Jul-22 01:00N 58°56' E 011°10'0 0.0
2017-Jul-22 00:30N 58°56' E 011°10'0 0.0
2017-Jul-22 00:00N 58°56' E 011°10'0 0.0
2017-Jul-21 23:30N 58°56' E 011°10'0 0.0
2017-Jul-21 23:00N 58°56' E 011°10'0 0.0
2017-Jul-21 22:30N 58°56' E 011°10'0 0.0
2017-Jul-21 22:00N 58°56' E 011°10'0 0.0
2017-Jul-21 21:30N 58°56' E 011°10'0 0.0
2017-Jul-21 21:00N 58°56' E 011°10'0 0.0
2017-Jul-21 20:30N 58°56' E 011°10'0 0.0
2017-Jul-21 20:00N 58°56' E 011°10'0 0.0
2017-Jul-21 19:30N 58°56' E 011°10'0 0.0
2017-Jul-21 19:00N 58°56' E 011°10'0 0.0
2017-Jul-21 18:30N 58°56' E 011°10'0 0.0
2017-Jul-21 18:00N 58°56' E 011°10'0 0.0
2017-Jul-21 17:30N 58°56' E 011°10'0 0.0
2017-Jul-21 17:00N 58°56' E 011°10'0 0.0
2017-Jul-21 16:30N 58°56' E 011°10'0 0.0
2017-Jul-21 16:00N 58°56' E 011°10'0 0.0
2017-Jul-21 15:30N 58°56' E 011°10'0 0.0
2017-Jul-21 15:00N 58°56' E 011°10'0 0.0
2017-Jul-21 14:30N 58°56' E 011°10'0 0.0
2017-Jul-21 14:00N 58°56' E 011°10'0 0.0
2017-Jul-21 13:30N 58°56' E 011°10'0 0.0
2017-Jul-21 13:00N 58°56' E 011°10'0 0.0
2017-Jul-21 12:30N 58°56' E 011°10'0 0.0
2017-Jul-21 12:00N 58°56' E 011°10'0 0.0
2017-Jul-21 11:30N 58°56' E 011°10'0 0.0
2017-Jul-21 11:00N 58°56' E 011°10'0 0.0
2017-Jul-21 10:30N 58°56' E 011°10'0 0.0
2017-Jul-21 10:00N 58°56' E 011°10'0 0.0
2017-Jul-21 09:30N 58°56' E 011°10'0 0.0
2017-Jul-21 09:00N 58°56' E 011°10'0 0.0
2017-Jul-21 08:30N 58°56' E 011°10'0 0.0
2017-Jul-21 08:00N 58°56' E 011°10'0 0.0
2017-Jul-21 07:30N 58°56' E 011°10'0 0.0
2017-Jul-21 07:00N 58°56' E 011°10'0 0.0
2017-Jul-21 06:30N 58°56' E 011°10'0 0.0
2017-Jul-21 06:00N 58°56' E 011°10'0 0.0
2017-Jul-21 05:30N 58°56' E 011°10'0 0.0
2017-Jul-21 05:00N 58°56' E 011°10'0 0.0
2017-Jul-21 04:30N 58°56' E 011°10'0 0.0
2017-Jul-21 04:00N 58°56' E 011°10'0 0.0
2017-Jul-21 03:30N 58°56' E 011°10'0 0.0
2017-Jul-21 03:00N 58°56' E 011°10'0 0.0
2017-Jul-21 02:30N 58°56' E 011°10'0 0.0
2017-Jul-21 02:00N 58°56' E 011°10'0 0.0
2017-Jul-21 01:30N 58°56' E 011°10'0 0.0
2017-Jul-21 01:00N 58°56' E 011°10'0 0.0
2017-Jul-21 00:30N 58°56' E 011°10'0 0.0
2017-Jul-21 00:00N 58°56' E 011°10'0 0.0
2017-Jul-20 23:30N 58°56' E 011°10'0 0.0
2017-Jul-20 23:00N 58°56' E 011°10'0 0.0
2017-Jul-20 22:30N 58°56' E 011°10'0 0.0
2017-Jul-20 22:00N 58°56' E 011°10'0 0.0
2017-Jul-20 21:30N 58°56' E 011°10'0 0.0
2017-Jul-20 21:00N 58°56' E 011°10'0 0.0
2017-Jul-20 20:30N 58°56' E 011°10'0 0.0
2017-Jul-20 20:00N 58°56' E 011°10'0 0.0
2017-Jul-20 19:30N 58°56' E 011°10'0 0.0
2017-Jul-20 19:00N 58°56' E 011°10'0 0.0
2017-Jul-20 18:30N 58°56' E 011°10'0 0.0
2017-Jul-20 18:00N 58°56' E 011°10'0 0.0
2017-Jul-20 17:30N 58°56' E 011°10'0 0.0
2017-Jul-20 17:00N 58°56' E 011°10'0 0.0
2017-Jul-20 16:30N 58°56' E 011°10'0 0.0
2017-Jul-20 16:00N 58°56' E 011°10'0 0.0
2017-Jul-20 15:30N 58°56' E 011°10'0 0.0
2017-Jul-20 15:00N 58°56' E 011°10'0 0.0
2017-Jul-20 14:00N 58°56' E 011°10'0 0.0
2017-Jul-20 13:30N 58°56' E 011°10'0 0.0
2017-Jul-20 13:00N 58°56' E 011°10'0 0.0
2017-Jul-20 12:30N 58°56' E 011°10'0 0.0
2017-Jul-20 12:00N 58°56' E 011°10'0 0.0
2017-Jul-20 11:30N 58°56' E 011°10'0 0.0
2017-Jul-20 11:00N 58°56' E 011°10'0 0.0
2017-Jul-20 10:30N 58°56' E 011°10'0 0.0
2017-Jul-20 10:00N 58°56' E 011°10'0 0.0
2017-Jul-20 09:30N 58°56' E 011°10'0 0.0
2017-Jul-20 09:00N 58°56' E 011°10'0 0.0
2017-Jul-20 08:29N 58°56' E 011°10'0 0.0
2017-Jul-20 08:00N 58°56' E 011°10'0 0.0
2017-Jul-20 07:30N 58°56' E 011°10'0 0.0
2017-Jul-20 07:00N 58°56' E 011°10'0 0.0
2017-Jul-20 06:30N 58°56' E 011°10'0 0.0
2017-Jul-20 06:00N 58°56' E 011°10'0 0.0
2017-Jul-20 05:30N 58°56' E 011°10'0 0.0
2017-Jul-20 04:59N 58°56' E 011°10'0 0.0
2017-Jul-20 04:30N 58°56' E 011°10'0 0.0
2017-Jul-20 04:00N 58°56' E 011°10'0 0.0
2017-Jul-20 03:30N 58°56' E 011°10'0 0.0
2017-Jul-20 03:00N 58°56' E 011°10'0 0.0
2017-Jul-20 02:30N 58°56' E 011°10'0 0.0
2017-Jul-20 02:00N 58°56' E 011°10'0 0.0
2017-Jul-20 01:30N 58°56' E 011°10'0 0.0
2017-Jul-20 01:00N 58°56' E 011°10'0 0.0
2017-Jul-20 00:30N 58°56' E 011°10'0 0.0
2017-Jul-19 23:59N 58°56' E 011°10'0 0.0
2017-Jul-19 23:30N 58°56' E 011°10'0 0.0
2017-Jul-19 23:00N 58°56' E 011°10'0 0.0
2017-Jul-19 22:30N 58°56' E 011°10'0 0.0
2017-Jul-19 22:00N 58°56' E 011°10'0 0.0
2017-Jul-19 21:30N 58°56' E 011°10'0 0.0
2017-Jul-19 21:00N 58°56' E 011°10'0 0.0
2017-Jul-19 20:30N 58°56' E 011°10'0 0.0
2017-Jul-19 20:00N 58°56' E 011°10'0 0.0
2017-Jul-19 19:30N 58°56' E 011°10'0 0.0
2017-Jul-19 19:00N 58°56' E 011°10'0 0.0
2017-Jul-19 18:30N 58°56' E 011°10'0 0.0
2017-Jul-19 18:00N 58°56' E 011°10'0 0.0
2017-Jul-19 17:30N 58°56' E 011°10'0 0.0
2017-Jul-19 17:00N 58°56' E 011°10'0 0.0
2017-Jul-19 16:30N 58°56' E 011°10'0 0.0
2017-Jul-19 16:00N 58°56' E 011°10'0 0.0
2017-Jul-19 15:30N 58°56' E 011°10'0 0.0
2017-Jul-19 15:00N 58°56' E 011°10'0 0.0
2017-Jul-19 14:30N 58°56' E 011°10'0 0.0
2017-Jul-19 14:00N 58°56' E 011°10'0 0.0
2017-Jul-19 13:30N 58°56' E 011°10'0 0.0
2017-Jul-19 13:00N 58°56' E 011°10'0 0.0
2017-Jul-19 12:30N 58°56' E 011°10'0 0.0
2017-Jul-19 12:00N 58°56' E 011°10'0 0.0
2017-Jul-19 11:30N 58°56' E 011°10'0 0.0
2017-Jul-19 11:00N 58°56' E 011°10'0 0.0
2017-Jul-19 10:29N 58°56' E 011°10'0 0.0
2017-Jul-19 10:00N 58°56' E 011°10'0 0.0
2017-Jul-19 09:30N 58°56' E 011°10'0 0.0
2017-Jul-19 09:00N 58°56' E 011°10'0 0.0
2017-Jul-19 08:30N 58°56' E 011°10'0 0.0
2017-Jul-19 08:00N 58°56' E 011°10'0 0.0
2017-Jul-19 07:30N 58°56' E 011°10'0 0.0
2017-Jul-19 06:59N 58°56' E 011°10'0 0.0
2017-Jul-19 06:30N 58°56' E 011°10'0 0.0
2017-Jul-19 06:00N 58°56' E 011°10'0 0.0
2017-Jul-19 05:29N 58°56' E 011°10'0 0.0
2017-Jul-19 04:59N 58°56' E 011°10'0 0.0
2017-Jul-19 04:30N 58°56' E 011°10'0 0.0
2017-Jul-19 04:00N 58°56' E 011°10'0 0.0
2017-Jul-19 03:30N 58°56' E 011°10'0 0.0
2017-Jul-19 03:00N 58°56' E 011°10'0 0.0
2017-Jul-19 02:30N 58°56' E 011°10'0 0.0
2017-Jul-19 02:00N 58°56' E 011°10'0 0.0
2017-Jul-19 01:30N 58°56' E 011°10'0 0.0
2017-Jul-19 01:00N 58°56' E 011°10'0 0.0
2017-Jul-19 00:30N 58°56' E 011°10'0 0.0
2017-Jul-19 00:00N 58°56' E 011°10'0 0.0
2017-Jul-18 23:29N 58°56' E 011°10'0 0.0
2017-Jul-18 23:00N 58°56' E 011°10'0 0.0
2017-Jul-18 22:30N 58°56' E 011°10'0 0.0
2017-Jul-18 22:00N 58°56' E 011°10'0 0.0
2017-Jul-18 21:30N 58°56' E 011°10'0 0.0
2017-Jul-18 21:00N 58°56' E 011°10'0 0.0
2017-Jul-18 20:30N 58°56' E 011°10'0 0.0
2017-Jul-18 19:59N 58°56' E 011°10'0 0.0
2017-Jul-18 19:30N 58°56' E 011°10'0 0.0
2017-Jul-18 19:00N 58°56' E 011°10'0 0.0
2017-Jul-18 18:29N 58°56' E 011°10'0 0.0
2017-Jul-18 17:59N 58°56' E 011°10'0 0.0
2017-Jul-18 17:30N 58°56' E 011°10'0 0.0
2017-Jul-18 17:00N 58°56' E 011°10'0 0.0
2017-Jul-18 16:30N 58°56' E 011°10'0 0.0
2017-Jul-18 16:00N 58°56' E 011°10'0 0.0
2017-Jul-18 15:30N 58°56' E 011°10'0 0.0
2017-Jul-18 15:00N 58°56' E 011°10'0 0.0
2017-Jul-18 14:00N 58°56' E 011°10'0 0.0
2017-Jul-18 13:30N 58°56' E 011°10'0 0.0
2017-Jul-18 12:59N 58°56' E 011°10'0 0.0
2017-Jul-18 12:30N 58°56' E 011°10'0 0.0
2017-Jul-18 12:00N 58°56' E 011°10'0 0.0
2017-Jul-18 11:30N 58°56' E 011°10'0 0.0
2017-Jul-18 11:00N 58°56' E 011°10'0 0.0
2017-Jul-18 10:30N 58°56' E 011°10'0 0.0
2017-Jul-18 10:00N 58°56' E 011°10'0 0.0
2017-Jul-18 09:30N 58°56' E 011°10'0 0.0
2017-Jul-18 09:00N 58°56' E 011°10'0 0.0
2017-Jul-18 08:30N 58°56' E 011°10'0 0.0
2017-Jul-18 08:00N 58°56' E 011°10'0 0.0
2017-Jul-18 07:30N 58°56' E 011°10'0 0.0
2017-Jul-18 07:00N 58°56' E 011°10'0 0.0
2017-Jul-18 06:30N 58°56' E 011°10'0 0.0
2017-Jul-18 06:00N 58°56' E 011°10'0 0.0
2017-Jul-18 05:30N 58°56' E 011°10'0 0.0
2017-Jul-18 05:00N 58°56' E 011°10'0 0.0
2017-Jul-18 04:30N 58°56' E 011°10'0 0.0
2017-Jul-18 03:59N 58°56' E 011°10'0 0.0
2017-Jul-18 03:30N 58°56' E 011°10'0 0.0
2017-Jul-18 03:00N 58°56' E 011°10'0 0.0
2017-Jul-18 02:30N 58°56' E 011°10'0 0.0
2017-Jul-18 02:00N 58°56' E 011°10'0 0.0
2017-Jul-18 01:30N 58°56' E 011°10'0 0.0
2017-Jul-18 01:00N 58°56' E 011°10'0 0.0
2017-Jul-18 00:30N 58°56' E 011°10'0 0.0
2017-Jul-18 00:00N 58°56' E 011°10'0 0.0
2017-Jul-17 23:30N 58°56' E 011°10'0 0.0
2017-Jul-17 22:59N 58°56' E 011°10'0 0.0
2017-Jul-17 22:30N 58°56' E 011°10'0 0.0
2017-Jul-17 22:00N 58°56' E 011°10'0 0.0
2017-Jul-17 21:29N 58°56' E 011°10'0 0.0
2017-Jul-17 21:00N 58°56' E 011°10'0 0.0
2017-Jul-17 20:29N 58°56' E 011°10'0 0.0
2017-Jul-17 19:59N 58°56' E 011°10'0 0.0
2017-Jul-17 19:30N 58°56' E 011°10'0 0.0
2017-Jul-17 19:00N 58°56' E 011°10'0 0.0
2017-Jul-17 18:30N 58°56' E 011°10'0 0.0
2017-Jul-17 17:59N 58°56' E 011°10'0 0.0
2017-Jul-17 17:29N 58°56' E 011°10'0 0.0
2017-Jul-17 17:00N 58°56' E 011°10'0 0.0
2017-Jul-17 16:30N 58°56' E 011°10'0 0.0
2017-Jul-17 16:00N 58°56' E 011°10'0 0.0
2017-Jul-17 15:30N 58°56' E 011°10'0 0.0
2017-Jul-17 15:00N 58°56' E 011°10'0 0.0
2017-Jul-17 14:30N 58°56' E 011°10'0 0.0
2017-Jul-17 13:59N 58°56' E 011°10'0 0.0
2017-Jul-17 13:30N 58°56' E 011°10'0 0.0
2017-Jul-17 12:59N 58°56' E 011°10'0 0.0
2017-Jul-17 12:30N 58°56' E 011°10'0 0.0
2017-Jul-17 12:00N 58°56' E 011°10'0 0.0
2017-Jul-17 11:30N 58°56' E 011°10'0 0.0
2017-Jul-17 11:00N 58°56' E 011°10'0 0.0
2017-Jul-17 10:30N 58°56' E 011°10'0 0.0
2017-Jul-17 10:00N 58°56' E 011°10'0 0.0
2017-Jul-17 09:29N 58°56' E 011°10'0 0.0
2017-Jul-17 09:00N 58°56' E 011°10'0 0.0
2017-Jul-17 08:30N 58°56' E 011°10'0 0.0
2017-Jul-17 08:00N 58°56' E 011°10'0 0.0
2017-Jul-17 07:30N 58°56' E 011°10'0 0.0
2017-Jul-17 07:00N 58°56' E 011°10'0 0.0
2017-Jul-17 06:30N 58°56' E 011°10'0 0.0
2017-Jul-17 06:00N 58°56' E 011°10'0 0.0
2017-Jul-17 05:30N 58°56' E 011°10'0 0.0
2017-Jul-17 05:00N 58°56' E 011°10'0 0.0
2017-Jul-17 04:30N 58°56' E 011°10'0 0.0
2017-Jul-17 03:59N 58°56' E 011°10'0 0.0
2017-Jul-17 03:30N 58°56' E 011°10'0 0.0
2017-Jul-17 03:00N 58°56' E 011°10'0 0.0
2017-Jul-17 02:30N 58°56' E 011°10'0 0.0
2017-Jul-17 02:00N 58°56' E 011°10'0 0.0
2017-Jul-17 01:30N 58°56' E 011°10'0 0.0
2017-Jul-17 01:00N 58°56' E 011°10'0 0.0
2017-Jul-17 00:30N 58°56' E 011°10'0 0.0
2017-Jul-17 00:00N 58°56' E 011°10'0 0.0
2017-Jul-16 23:29N 58°56' E 011°10'0 0.0
2017-Jul-16 23:00N 58°56' E 011°10'0 0.0
2017-Jul-16 22:30N 58°56' E 011°10'0 0.0
2017-Jul-16 22:00N 58°56' E 011°10'0 0.0
2017-Jul-16 21:30N 58°56' E 011°10'0 0.0
2017-Jul-16 21:00N 58°56' E 011°10'0 0.0
2017-Jul-16 20:30N 58°56' E 011°10'0 0.0
2017-Jul-16 20:00N 58°56' E 011°10'0 0.0
2017-Jul-16 19:30N 58°56' E 011°10'0 0.0
2017-Jul-16 18:59N 58°56' E 011°10'0 0.0
2017-Jul-16 18:30N 58°56' E 011°10'0 0.0
2017-Jul-16 18:00N 58°56' E 011°10'0 0.0
2017-Jul-16 17:30N 58°56' E 011°10'0 0.0
2017-Jul-16 17:00N 58°56' E 011°10'0 0.0
2017-Jul-16 16:30N 58°56' E 011°10'0 0.0
2017-Jul-16 16:00N 58°56' E 011°10'0 0.0
2017-Jul-16 15:30N 58°56' E 011°10'0 0.0
2017-Jul-16 15:00N 58°56' E 011°10'0 0.0
2017-Jul-16 14:30N 58°56' E 011°10'0 0.0
2017-Jul-16 14:00N 58°56' E 011°10'0 0.0
2017-Jul-16 13:30N 58°56' E 011°10'0 0.0
2017-Jul-16 13:00N 58°56' E 011°10'0 0.0
2017-Jul-16 12:30N 58°56' E 011°10'0 0.0
2017-Jul-16 12:00N 58°56' E 011°10'0 0.0
2017-Jul-16 11:30N 58°56' E 011°10'0 0.0
2017-Jul-16 11:00N 58°56' E 011°10'0 0.0
2017-Jul-16 10:30N 58°56' E 011°10'0 0.0
2017-Jul-16 10:00N 58°56' E 011°10'0 0.0
2017-Jul-16 09:30N 58°56' E 011°10'0 0.0
2017-Jul-16 09:00N 58°56' E 011°10'0 0.0
2017-Jul-16 08:30N 58°56' E 011°10'0 0.0
2017-Jul-16 08:00N 58°56' E 011°10'0 0.0
2017-Jul-16 07:30N 58°56' E 011°10'0 0.0
2017-Jul-16 07:00N 58°56' E 011°10'0 0.0
2017-Jul-16 06:30N 58°56' E 011°10'0 0.0
2017-Jul-16 06:00N 58°56' E 011°10'0 0.0
2017-Jul-16 05:30N 58°56' E 011°10'0 0.0
2017-Jul-16 05:00N 58°56' E 011°10'0 0.0
2017-Jul-16 04:30N 58°56' E 011°10'0 0.0
2017-Jul-16 04:00N 58°56' E 011°10'0 0.0
2017-Jul-16 03:30N 58°56' E 011°10'0 0.0
2017-Jul-16 03:00N 58°56' E 011°10'0 0.0
2017-Jul-16 02:30N 58°56' E 011°10'0 0.0
2017-Jul-16 02:00N 58°56' E 011°10'0 0.0
2017-Jul-16 01:30N 58°56' E 011°10'0 0.0
2017-Jul-16 01:00N 58°56' E 011°10'0 0.0
2017-Jul-16 00:30N 58°56' E 011°10'0 0.0
2017-Jul-16 00:00N 58°56' E 011°10'0 0.0
2017-Jul-15 23:30N 58°56' E 011°10'0 0.0
2017-Jul-15 23:00N 58°56' E 011°10'0 0.0
2017-Jul-15 22:30N 58°56' E 011°10'0 0.0
2017-Jul-15 22:00N 58°56' E 011°10'0 0.0
2017-Jul-15 21:30N 58°56' E 011°10'0 0.0
2017-Jul-15 21:00N 58°56' E 011°10'0 0.0
2017-Jul-15 20:30N 58°56' E 011°10'0 0.0
2017-Jul-15 20:00N 58°56' E 011°10'0 0.0
2017-Jul-15 19:30N 58°56' E 011°10'0 0.0
2017-Jul-15 19:00N 58°56' E 011°10'0 0.0
2017-Jul-15 18:30N 58°56' E 011°10'0 0.0
2017-Jul-15 18:00N 58°56' E 011°10'0 0.0
2017-Jul-15 17:30N 58°56' E 011°10'0 0.0
2017-Jul-15 17:00N 58°56' E 011°10'0 0.0
2017-Jul-15 16:30N 58°56' E 011°10'0 0.0
2017-Jul-15 16:00N 58°56' E 011°10'0 0.0
2017-Jul-15 15:30N 58°56' E 011°10'0 0.0
2017-Jul-15 15:00N 58°56' E 011°10'0 0.0
2017-Jul-15 14:00N 58°56' E 011°10'0 0.0
2017-Jul-15 13:30N 58°56' E 011°10'0 0.0
2017-Jul-15 13:00N 58°56' E 011°10'0 0.0
2017-Jul-15 12:30N 58°56' E 011°10'0 0.0
2017-Jul-15 12:00N 58°56' E 011°10'0 0.0
2017-Jul-15 11:30N 58°56' E 011°10'0 0.0
2017-Jul-15 11:00N 58°56' E 011°10'0 0.0
2017-Jul-15 10:30N 58°56' E 011°10'0 0.0
2017-Jul-15 10:00N 58°56' E 011°10'0 0.0
2017-Jul-15 09:30N 58°56' E 011°10'0 0.0
2017-Jul-15 09:00N 58°56' E 011°10'0 0.0
2017-Jul-15 08:30N 58°56' E 011°10'0 0.0
2017-Jul-15 08:00N 58°56' E 011°10'0 0.0
2017-Jul-15 07:30N 58°56' E 011°10'0 0.0
2017-Jul-15 07:00N 58°56' E 011°10'0 0.0
2017-Jul-15 06:30N 58°56' E 011°10'0 0.0
2017-Jul-15 06:00N 58°56' E 011°10'0 0.0
2017-Jul-15 05:30N 58°56' E 011°10'0 0.0
2017-Jul-15 05:00N 58°56' E 011°10'0 0.0
2017-Jul-15 04:30N 58°56' E 011°10'0 0.0
2017-Jul-15 04:00N 58°56' E 011°10'0 0.0
2017-Jul-15 03:30N 58°56' E 011°10'0 0.0
2017-Jul-15 03:00N 58°56' E 011°10'0 0.0
2017-Jul-15 02:30N 58°56' E 011°10'0 0.0
2017-Jul-15 02:00N 58°56' E 011°10'0 0.0
2017-Jul-15 01:30N 58°56' E 011°10'0 0.0
2017-Jul-15 01:00N 58°56' E 011°10'0 0.0
2017-Jul-15 00:30N 58°56' E 011°10'0 0.0
2017-Jul-15 00:00N 58°56' E 011°10'0 0.0
2017-Jul-14 23:30N 58°56' E 011°10'0 0.0
2017-Jul-14 23:00N 58°56' E 011°10'0 0.0
2017-Jul-14 22:30N 58°56' E 011°10'0 0.0
2017-Jul-14 22:00N 58°56' E 011°10'0 0.0
2017-Jul-14 21:30N 58°56' E 011°10'0 0.0
2017-Jul-14 21:00N 58°56' E 011°10'0 0.0
2017-Jul-14 20:30N 58°56' E 011°10'  
Track history (hours):
 
Tides and Currents Weather Stations Pressure Air Temp Water Temp Dewpoint Dewpoint Depression Visibility Wind Speed Wind Dir Waves Ship Positions

Sd416 Nippon

Last reported at 2017-Jul-24 20:28 UTC. Time now 2017-Jul-24 20:49 UTC.
Position N 58°29' E 010°26'.

Length 17 m; draft 2.5 m.

Type: Fishing. MMSI: 266163000.

Date/timePositionNaut miles runAvg speedWind from/ knotsBaromVisibWave heightAir tempDewpointWater temp
2017-Jul-24 20:28N 58°29' E 010°26'4 8.5
2017-Jul-24 19:57N 58°33' E 010°22'3 6.5
2017-Jul-24 19:27N 58°36' E 010°20'0 0.6
2017-Jul-24 19:00N 58°36' E 010°20'1 1.1
2017-Jul-24 18:30N 58°36' E 010°21'1 1.3
2017-Jul-24 18:00N 58°36' E 010°22'1 1.3
2017-Jul-24 16:58N 58°35' E 010°24'1 1.3
2017-Jul-24 16:22N 58°34' E 010°25'4 1.2
2017-Jul-24 13:00N 58°30' E 010°28'1 1.3
2017-Jul-24 12:31N 58°30' E 010°29'1 1.3
2017-Jul-24 12:00N 58°29' E 010°30'1 1.3
2017-Jul-24 11:30N 58°29' E 010°30'1 1.4
2017-Jul-24 11:00N 58°28' E 010°31'1 1.4
2017-Jul-24 10:30N 58°27' E 010°31'1 1.4
2017-Jul-24 09:55N 58°27' E 010°30'1 1.4
2017-Jul-24 09:30N 58°26' E 010°30'1 1.4
2017-Jul-24 09:00N 58°25' E 010°30'1 1.9
2017-Jul-24 08:31N 58°25' E 010°30'3 5.8
2017-Jul-24 08:00N 58°27' E 010°27'4 7.1
2017-Jul-24 07:30N 58°30' E 010°25'5 7.0
2017-Jul-24 06:47N 58°35' E 010°22'0 1.2
2017-Jul-24 06:30N 58°35' E 010°22'0 0.4
2017-Jul-24 06:00N 58°35' E 010°22'1 1.3
2017-Jul-24 05:30N 58°35' E 010°23'1 1.3
2017-Jul-24 05:00N 58°34' E 010°24'1 1.3
2017-Jul-24 04:30N 58°34' E 010°25'1 1.3
2017-Jul-24 04:00N 58°33' E 010°26'1 1.3
2017-Jul-24 03:30N 58°32' E 010°26'1 1.3
2017-Jul-24 03:00N 58°32' E 010°26'1 1.3
2017-Jul-24 02:30N 58°31' E 010°26'1 1.2
2017-Jul-24 02:00N 58°31' E 010°27'1 1.3
2017-Jul-24 01:30N 58°30' E 010°28'1 1.3
2017-Jul-24 01:00N 58°30' E 010°29'1 1.3
2017-Jul-24 00:30N 58°30' E 010°29'1 1.3
2017-Jul-24 00:00N 58°29' E 010°30'1 1.3
2017-Jul-23 23:30N 58°28' E 010°31'1 1.3
2017-Jul-23 23:00N 58°28' E 010°31'1 1.3
2017-Jul-23 22:30N 58°27' E 010°31'1 1.3
2017-Jul-23 22:00N 58°27' E 010°31'1 1.4
2017-Jul-23 21:30N 58°26' E 010°30'1 1.4
2017-Jul-23 21:00N 58°25' E 010°30'1 1.8
2017-Jul-23 20:30N 58°26' E 010°31'4 8.1
2017-Jul-23 20:00N 58°29' E 010°36'4 8.0
2017-Jul-23 19:30N 58°32' E 010°41'4 8.2
2017-Jul-23 19:00N 58°35' E 010°46'4 7.8
2017-Jul-23 18:30N 58°38' E 010°50'3 7.0
2017-Jul-23 18:00N 58°41' E 010°55'3 6.7
2017-Jul-23 17:30N 58°44' E 010°59'4 7.4
2017-Jul-23 17:00N 58°47' E 011°02'4 7.4
2017-Jul-23 16:30N 58°50' E 011°05'4 7.4
2017-Jul-23 16:00N 58°54' E 011°05'3 6.9
2017-Jul-23 15:30N 58°56' E 011°10'0 0.3
2017-Jul-23 15:00N 58°56' E 011°10'0 0.0
2017-Jul-23 14:30N 58°56' E 011°10'0 0.0
2017-Jul-23 14:00N 58°56' E 011°10'0 0.0
2017-Jul-23 13:30N 58°56' E 011°10'0 0.0
2017-Jul-23 13:00N 58°56' E 011°10'0 0.0
2017-Jul-23 12:30N 58°56' E 011°10'0 0.0
2017-Jul-23 12:00N 58°56' E 011°10'0 0.0
2017-Jul-23 11:30N 58°56' E 011°10'0 0.0
2017-Jul-23 11:00N 58°56' E 011°10'0 0.0
2017-Jul-23 10:30N 58°56' E 011°10'0 0.0
2017-Jul-23 10:00N 58°56' E 011°10'0 0.0
2017-Jul-23 09:30N 58°56' E 011°10'0 0.0
2017-Jul-23 09:00N 58°56' E 011°10'0 0.0
2017-Jul-23 08:30N 58°56' E 011°10'0 0.0
2017-Jul-23 08:00N 58°56' E 011°10'0 0.0
2017-Jul-23 07:30N 58°56' E 011°10'0 0.0
2017-Jul-23 07:00N 58°56' E 011°10'0 0.0
2017-Jul-23 06:30N 58°56' E 011°10'0 0.0
2017-Jul-23 06:00N 58°56' E 011°10'0 0.0
2017-Jul-23 05:30N 58°56' E 011°10'0 0.0
2017-Jul-23 05:00N 58°56' E 011°10'0 0.0
2017-Jul-23 04:30N 58°56' E 011°10'0 0.0
2017-Jul-23 04:00N 58°56' E 011°10'0 0.0
2017-Jul-23 03:30N 58°56' E 011°10'0 0.0
2017-Jul-23 03:00N 58°56' E 011°10'0 0.0
2017-Jul-23 02:30N 58°56' E 011°10'0 0.0
2017-Jul-23 02:00N 58°56' E 011°10'0 0.0
2017-Jul-23 01:30N 58°56' E 011°10'0 0.0
2017-Jul-23 01:00N 58°56' E 011°10'0 0.0
2017-Jul-23 00:30N 58°56' E 011°10'0 0.0
2017-Jul-23 00:00N 58°56' E 011°10'0 0.0
2017-Jul-22 23:30N 58°56' E 011°10'0 0.0
2017-Jul-22 23:00N 58°56' E 011°10'0 0.0
2017-Jul-22 22:30N 58°56' E 011°10'0 0.0
2017-Jul-22 22:00N 58°56' E 011°10'0 0.0
2017-Jul-22 21:30N 58°56' E 011°10'0 0.0
2017-Jul-22 21:00N 58°56' E 011°10'0 0.0
2017-Jul-22 20:30N 58°56' E 011°10'0 0.0
2017-Jul-22 20:00N 58°56' E 011°10'0 0.0
2017-Jul-22 19:30N 58°56' E 011°10'0 0.0
2017-Jul-22 19:00N 58°56' E 011°10'0 0.0
2017-Jul-22 18:30N 58°56' E 011°10'0 0.0
2017-Jul-22 18:00N 58°56' E 011°10'0 0.0
2017-Jul-22 17:30N 58°56' E 011°10'0 0.0
2017-Jul-22 17:00N 58°56' E 011°10'0 0.0
2017-Jul-22 16:30N 58°56' E 011°10'0 0.0
2017-Jul-22 16:00N 58°56' E 011°10'0 0.0
2017-Jul-22 15:30N 58°56' E 011°10'0 0.0
2017-Jul-22 15:00N 58°56' E 011°10'0 0.0
2017-Jul-22 14:00N 58°56' E 011°10'0 0.0
2017-Jul-22 13:30N 58°56' E 011°10'0 0.0
2017-Jul-22 13:00N 58°56' E 011°10'0 0.0
2017-Jul-22 12:30N 58°56' E 011°10'0 0.0
2017-Jul-22 12:00N 58°56' E 011°10'0 0.0
2017-Jul-22 11:30N 58°56' E 011°10'0 0.0
2017-Jul-22 11:00N 58°56' E 011°10'0 0.0
2017-Jul-22 10:30N 58°56' E 011°10'0 0.0
2017-Jul-22 10:00N 58°56' E 011°10'0 0.0
2017-Jul-22 09:30N 58°56' E 011°10'0 0.0
2017-Jul-22 09:00N 58°56' E 011°10'0 0.0
2017-Jul-22 08:30N 58°56' E 011°10'0 0.0
2017-Jul-22 08:00N 58°56' E 011°10'0 0.0
2017-Jul-22 07:30N 58°56' E 011°10'0 0.0
2017-Jul-22 07:00N 58°56' E 011°10'0 0.0
2017-Jul-22 06:30N 58°56' E 011°10'0 0.0
2017-Jul-22 06:00N 58°56' E 011°10'0 0.0
2017-Jul-22 05:30N 58°56' E 011°10'0 0.0
2017-Jul-22 05:00N 58°56' E 011°10'0 0.0
2017-Jul-22 04:30N 58°56' E 011°10'0 0.0
2017-Jul-22 04:00N 58°56' E 011°10'0 0.0
2017-Jul-22 03:30N 58°56' E 011°10'0 0.0
2017-Jul-22 03:00N 58°56' E 011°10'0 0.0
2017-Jul-22 02:30N 58°56' E 011°10'0 0.0
2017-Jul-22 02:00N 58°56' E 011°10'0 0.0
2017-Jul-22 01:30N 58°56' E 011°10'0 0.0
2017-Jul-22 01:00N 58°56' E 011°10'0 0.0
2017-Jul-22 00:30N 58°56' E 011°10'0 0.0
2017-Jul-22 00:00N 58°56' E 011°10'0 0.0
2017-Jul-21 23:30N 58°56' E 011°10'0 0.0
2017-Jul-21 23:00N 58°56' E 011°10'0 0.0
2017-Jul-21 22:30N 58°56' E 011°10'0 0.0
2017-Jul-21 22:00N 58°56' E 011°10'0 0.0
2017-Jul-21 21:30N 58°56' E 011°10'0 0.0
2017-Jul-21 21:00N 58°56' E 011°10'0 0.0
2017-Jul-21 20:30N 58°56' E 011°10'0 0.0
2017-Jul-21 20:00N 58°56' E 011°10'0 0.0
2017-Jul-21 19:30N 58°56' E 011°10'0 0.0
2017-Jul-21 19:00N 58°56' E 011°10'0 0.0
2017-Jul-21 18:30N 58°56' E 011°10'0 0.0
2017-Jul-21 18:00N 58°56' E 011°10'0 0.0
2017-Jul-21 17:30N 58°56' E 011°10'0 0.0
2017-Jul-21 17:00N 58°56' E 011°10'0 0.0
2017-Jul-21 16:30N 58°56' E 011°10'0 0.0
2017-Jul-21 16:00N 58°56' E 011°10'0 0.0
2017-Jul-21 15:30N 58°56' E 011°10'0 0.0
2017-Jul-21 15:00N 58°56' E 011°10'0 0.0
2017-Jul-21 14:30N 58°56' E 011°10'0 0.0
2017-Jul-21 14:00N 58°56' E 011°10'0 0.0
2017-Jul-21 13:30N 58°56' E 011°10'0 0.0
2017-Jul-21 13:00N 58°56' E 011°10'0 0.0
2017-Jul-21 12:30N 58°56' E 011°10'0 0.0
2017-Jul-21 12:00N 58°56' E 011°10'0 0.0
2017-Jul-21 11:30N 58°56' E 011°10'0 0.0
2017-Jul-21 11:00N 58°56' E 011°10'0 0.0
2017-Jul-21 10:30N 58°56' E 011°10'0 0.0
2017-Jul-21 10:00N 58°56' E 011°10'0 0.0
2017-Jul-21 09:30N 58°56' E 011°10'0 0.0
2017-Jul-21 09:00N 58°56' E 011°10'0 0.0
2017-Jul-21 08:30N 58°56' E 011°10'0 0.0
2017-Jul-21 08:00N 58°56' E 011°10'0 0.0
2017-Jul-21 07:30N 58°56' E 011°10'0 0.0
2017-Jul-21 07:00N 58°56' E 011°10'0 0.0
2017-Jul-21 06:30N 58°56' E 011°10'0 0.0
2017-Jul-21 06:00N 58°56' E 011°10'0 0.0
2017-Jul-21 05:30N 58°56' E 011°10'0 0.0
2017-Jul-21 05:00N 58°56' E 011°10'0 0.0
2017-Jul-21 04:30N 58°56' E 011°10'0 0.0
2017-Jul-21 04:00N 58°56' E 011°10'0 0.0
2017-Jul-21 03:30N 58°56' E 011°10'0 0.0
2017-Jul-21 03:00N 58°56' E 011°10'0 0.0
2017-Jul-21 02:30N 58°56' E 011°10'0 0.0
2017-Jul-21 02:00N 58°56' E 011°10'0 0.0
2017-Jul-21 01:30N 58°56' E 011°10'0 0.0
2017-Jul-21 01:00N 58°56' E 011°10'0 0.0
2017-Jul-21 00:30N 58°56' E 011°10'0 0.0
2017-Jul-21 00:00N 58°56' E 011°10'0 0.0
2017-Jul-20 23:30N 58°56' E 011°10'0 0.0
2017-Jul-20 23:00N 58°56' E 011°10'0 0.0
2017-Jul-20 22:30N 58°56' E 011°10'0 0.0
2017-Jul-20 22:00N 58°56' E 011°10'0 0.0
2017-Jul-20 21:30N 58°56' E 011°10'0 0.0
2017-Jul-20 21:00N 58°56' E 011°10'0 0.0
2017-Jul-20 20:30N 58°56' E 011°10'0 0.0
2017-Jul-20 20:00N 58°56' E 011°10'0 0.0
2017-Jul-20 19:30N 58°56' E 011°10'0 0.0
2017-Jul-20 19:00N 58°56' E 011°10'0 0.0
2017-Jul-20 18:30N 58°56' E 011°10'0 0.0
2017-Jul-20 18:00N 58°56' E 011°10'0 0.0
2017-Jul-20 17:30N 58°56' E 011°10'0 0.0
2017-Jul-20 17:00N 58°56' E 011°10'0 0.0
2017-Jul-20 16:30N 58°56' E 011°10'0 0.0
2017-Jul-20 16:00N 58°56' E 011°10'0 0.0
2017-Jul-20 15:30N 58°56' E 011°10'0 0.0
2017-Jul-20 15:00N 58°56' E 011°10'0 0.0
2017-Jul-20 14:00N 58°56' E 011°10'0 0.0
2017-Jul-20 13:30N 58°56' E 011°10'0 0.0
2017-Jul-20 13:00N 58°56' E 011°10'0 0.0
2017-Jul-20 12:30N 58°56' E 011°10'0 0.0
2017-Jul-20 12:00N 58°56' E 011°10'0 0.0
2017-Jul-20 11:30N 58°56' E 011°10'0 0.0
2017-Jul-20 11:00N 58°56' E 011°10'0 0.0
2017-Jul-20 10:30N 58°56' E 011°10'0 0.0
2017-Jul-20 10:00N 58°56' E 011°10'0 0.0
2017-Jul-20 09:30N 58°56' E 011°10'0 0.0
2017-Jul-20 09:00N 58°56' E 011°10'0 0.0
2017-Jul-20 08:29N 58°56' E 011°10'0 0.0
2017-Jul-20 08:00N 58°56' E 011°10'0 0.0
2017-Jul-20 07:30N 58°56' E 011°10'0 0.0
2017-Jul-20 07:00N 58°56' E 011°10'0 0.0
2017-Jul-20 06:30N 58°56' E 011°10'0 0.0
2017-Jul-20 06:00N 58°56' E 011°10'0 0.0
2017-Jul-20 05:30N 58°56' E 011°10'0 0.0
2017-Jul-20 04:59N 58°56' E 011°10'0 0.0
2017-Jul-20 04:30N 58°56' E 011°10'0 0.0
2017-Jul-20 04:00N 58°56' E 011°10'0 0.0
2017-Jul-20 03:30N 58°56' E 011°10'0 0.0
2017-Jul-20 03:00N 58°56' E 011°10'0 0.0
2017-Jul-20 02:30N 58°56' E 011°10'0 0.0
2017-Jul-20 02:00N 58°56' E 011°10'0 0.0
2017-Jul-20 01:30N 58°56' E 011°10'0 0.0
2017-Jul-20 01:00N 58°56' E 011°10'0 0.0
2017-Jul-20 00:30N 58°56' E 011°10'0 0.0
2017-Jul-19 23:59N 58°56' E 011°10'0 0.0
2017-Jul-19 23:30N 58°56' E 011°10'0 0.0
2017-Jul-19 23:00N 58°56' E 011°10'0 0.0
2017-Jul-19 22:30N 58°56' E 011°10'0 0.0
2017-Jul-19 22:00N 58°56' E 011°10'0 0.0
2017-Jul-19 21:30N 58°56' E 011°10'0 0.0
2017-Jul-19 21:00N 58°56' E 011°10'0 0.0
2017-Jul-19 20:30N 58°56' E 011°10'0 0.0
2017-Jul-19 20:00N 58°56' E 011°10'0 0.0
2017-Jul-19 19:30N 58°56' E 011°10'0 0.0
2017-Jul-19 19:00N 58°56' E 011°10'0 0.0
2017-Jul-19 18:30N 58°56' E 011°10'0 0.0
2017-Jul-19 18:00N 58°56' E 011°10'0 0.0
2017-Jul-19 17:30N 58°56' E 011°10'0 0.0
2017-Jul-19 17:00N 58°56' E 011°10'0 0.0
2017-Jul-19 16:30N 58°56' E 011°10'0 0.0
2017-Jul-19 16:00N 58°56' E 011°10'0 0.0
2017-Jul-19 15:30N 58°56' E 011°10'0 0.0
2017-Jul-19 15:00N 58°56' E 011°10'0 0.0
2017-Jul-19 14:30N 58°56' E 011°10'0 0.0
2017-Jul-19 14:00N 58°56' E 011°10'0 0.0
2017-Jul-19 13:30N 58°56' E 011°10'0 0.0
2017-Jul-19 13:00N 58°56' E 011°10'0 0.0
2017-Jul-19 12:30N 58°56' E 011°10'0 0.0
2017-Jul-19 12:00N 58°56' E 011°10'0 0.0
2017-Jul-19 11:30N 58°56' E 011°10'0 0.0
2017-Jul-19 11:00N 58°56' E 011°10'0 0.0
2017-Jul-19 10:29N 58°56' E 011°10'0 0.0
2017-Jul-19 10:00N 58°56' E 011°10'0 0.0
2017-Jul-19 09:30N 58°56' E 011°10'0 0.0
2017-Jul-19 09:00N 58°56' E 011°10'0 0.0
2017-Jul-19 08:30N 58°56' E 011°10'0 0.0
2017-Jul-19 08:00N 58°56' E 011°10'0 0.0
2017-Jul-19 07:30N 58°56' E 011°10'0 0.0
2017-Jul-19 06:59N 58°56' E 011°10'0 0.0
2017-Jul-19 06:30N 58°56' E 011°10'0 0.0
2017-Jul-19 06:00N 58°56' E 011°10'0 0.0
2017-Jul-19 05:29N 58°56' E 011°10'0 0.0
2017-Jul-19 04:59N 58°56' E 011°10'0 0.0
2017-Jul-19 04:30N 58°56' E 011°10'0 0.0
2017-Jul-19 04:00N 58°56' E 011°10'0 0.0
2017-Jul-19 03:30N 58°56' E 011°10'0 0.0
2017-Jul-19 03:00N 58°56' E 011°10'0 0.0
2017-Jul-19 02:30N 58°56' E 011°10'0 0.0
2017-Jul-19 02:00N 58°56' E 011°10'0 0.0
2017-Jul-19 01:30N 58°56' E 011°10'0 0.0
2017-Jul-19 01:00N 58°56' E 011°10'0 0.0
2017-Jul-19 00:30N 58°56' E 011°10'0 0.0
2017-Jul-19 00:00N 58°56' E 011°10'0 0.0
2017-Jul-18 23:29N 58°56' E 011°10'0 0.0
2017-Jul-18 23:00N 58°56' E 011°10'0 0.0
2017-Jul-18 22:30N 58°56' E 011°10'0 0.0
2017-Jul-18 22:00N 58°56' E 011°10'0 0.0
2017-Jul-18 21:30N 58°56' E 011°10'0 0.0
2017-Jul-18 21:00N 58°56' E 011°10'0 0.0
2017-Jul-18 20:30N 58°56' E 011°10'0 0.0
2017-Jul-18 19:59N 58°56' E 011°10'0 0.0
2017-Jul-18 19:30N 58°56' E 011°10'0 0.0
2017-Jul-18 19:00N 58°56' E 011°10'0 0.0
2017-Jul-18 18:29N 58°56' E 011°10'0 0.0
2017-Jul-18 17:59N 58°56' E 011°10'0 0.0
2017-Jul-18 17:30N 58°56' E 011°10'0 0.0
2017-Jul-18 17:00N 58°56' E 011°10'0 0.0
2017-Jul-18 16:30N 58°56' E 011°10'0 0.0
2017-Jul-18 16:00N 58°56' E 011°10'0 0.0
2017-Jul-18 15:30N 58°56' E 011°10'0 0.0
2017-Jul-18 15:00N 58°56' E 011°10'0 0.0
2017-Jul-18 14:00N 58°56' E 011°10'0 0.0
2017-Jul-18 13:30N 58°56' E 011°10'0 0.0
2017-Jul-18 12:59N 58°56' E 011°10'0 0.0
2017-Jul-18 12:30N 58°56' E 011°10'0 0.0
2017-Jul-18 12:00N 58°56' E 011°10'0 0.0
2017-Jul-18 11:30N 58°56' E 011°10'0 0.0
2017-Jul-18 11:00N 58°56' E 011°10'0 0.0
2017-Jul-18 10:30N 58°56' E 011°10'0 0.0
2017-Jul-18 10:00N 58°56' E 011°10'0 0.0
2017-Jul-18 09:30N 58°56' E 011°10'0 0.0
2017-Jul-18 09:00N 58°56' E 011°10'0 0.0
2017-Jul-18 08:30N 58°56' E 011°10'0 0.0
2017-Jul-18 08:00N 58°56' E 011°10'0 0.0
2017-Jul-18 07:30N 58°56' E 011°10'0 0.0
2017-Jul-18 07:00N 58°56' E 011°10'0 0.0
2017-Jul-18 06:30N 58°56' E 011°10'0 0.0
2017-Jul-18 06:00N 58°56' E 011°10'0 0.0
2017-Jul-18 05:30N 58°56' E 011°10'0 0.0
2017-Jul-18 05:00N 58°56' E 011°10'0 0.0
2017-Jul-18 04:30N 58°56' E 011°10'0 0.0
2017-Jul-18 03:59N 58°56' E 011°10'0 0.0
2017-Jul-18 03:30N 58°56' E 011°10'0 0.0
2017-Jul-18 03:00N 58°56' E 011°10'0 0.0
2017-Jul-18 02:30N 58°56' E 011°10'0 0.0
2017-Jul-18 02:00N 58°56' E 011°10'0 0.0
2017-Jul-18 01:30N 58°56' E 011°10'0 0.0
2017-Jul-18 01:00N 58°56' E 011°10'0 0.0
2017-Jul-18 00:30N 58°56' E 011°10'0 0.0
2017-Jul-18 00:00N 58°56' E 011°10'0 0.0
2017-Jul-17 23:30N 58°56' E 011°10'0 0.0
2017-Jul-17 22:59N 58°56' E 011°10'0 0.0
2017-Jul-17 22:30N 58°56' E 011°10'0 0.0
2017-Jul-17 22:00N 58°56' E 011°10'0 0.0
2017-Jul-17 21:29N 58°56' E 011°10'0 0.0
2017-Jul-17 21:00N 58°56' E 011°10'0 0.0
2017-Jul-17 20:29N 58°56' E 011°10'0 0.0
2017-Jul-17 19:59N 58°56' E 011°10'0 0.0
2017-Jul-17 19:30N 58°56' E 011°10'0 0.0
2017-Jul-17 19:00N 58°56' E 011°10'0 0.0
2017-Jul-17 18:30N 58°56' E 011°10'0 0.0
2017-Jul-17 17:59N 58°56' E 011°10'0 0.0
2017-Jul-17 17:29N 58°56' E 011°10'0 0.0
2017-Jul-17 17:00N 58°56' E 011°10'0 0.0
2017-Jul-17 16:30N 58°56' E 011°10'0 0.0
2017-Jul-17 16:00N 58°56' E 011°10'0 0.0
2017-Jul-17 15:30N 58°56' E 011°10'0 0.0
2017-Jul-17 15:00N 58°56' E 011°10'0 0.0
2017-Jul-17 14:30N 58°56' E 011°10'0 0.0
2017-Jul-17 13:59N 58°56' E 011°10'0 0.0
2017-Jul-17 13:30N 58°56' E 011°10'0 0.0
2017-Jul-17 12:59N 58°56' E 011°10'0 0.0
2017-Jul-17 12:30N 58°56' E 011°10'0 0.0
2017-Jul-17 12:00N 58°56' E 011°10'0 0.0
2017-Jul-17 11:30N 58°56' E 011°10'0 0.0
2017-Jul-17 11:00N 58°56' E 011°10'0 0.0
2017-Jul-17 10:30N 58°56' E 011°10'0 0.0
2017-Jul-17 10:00N 58°56' E 011°10'0 0.0
2017-Jul-17 09:29N 58°56' E 011°10'0 0.0
2017-Jul-17 09:00N 58°56' E 011°10'0 0.0
2017-Jul-17 08:30N 58°56' E 011°10'0 0.0
2017-Jul-17 08:00N 58°56' E 011°10'0 0.0
2017-Jul-17 07:30N 58°56' E 011°10'0 0.0
2017-Jul-17 07:00N 58°56' E 011°10'0 0.0
2017-Jul-17 06:30N 58°56' E 011°10'0 0.0
2017-Jul-17 06:00N 58°56' E 011°10'0 0.0
2017-Jul-17 05:30N 58°56' E 011°10'0 0.0
2017-Jul-17 05:00N 58°56' E 011°10'0 0.0
2017-Jul-17 04:30N 58°56' E 011°10'0 0.0
2017-Jul-17 03:59N 58°56' E 011°10'0 0.0
2017-Jul-17 03:30N 58°56' E 011°10'0 0.0
2017-Jul-17 03:00N 58°56' E 011°10'0 0.0
2017-Jul-17 02:30N 58°56' E 011°10'0 0.0
2017-Jul-17 02:00N 58°56' E 011°10'0 0.0
2017-Jul-17 01:30N 58°56' E 011°10'0 0.0
2017-Jul-17 01:00N 58°56' E 011°10'0 0.0
2017-Jul-17 00:30N 58°56' E 011°10'0 0.0
2017-Jul-17 00:00N 58°56' E 011°10'0 0.0
2017-Jul-16 23:29N 58°56' E 011°10'0 0.0
2017-Jul-16 23:00N 58°56' E 011°10'0 0.0
2017-Jul-16 22:30N 58°56' E 011°10'0 0.0
2017-Jul-16 22:00N 58°56' E 011°10'0 0.0
2017-Jul-16 21:30N 58°56' E 011°10'0 0.0
2017-Jul-16 21:00N 58°56' E 011°10'0 0.0
2017-Jul-16 20:30N 58°56' E 011°10'0 0.0
2017-Jul-16 20:00N 58°56' E 011°10'0 0.0
2017-Jul-16 19:30N 58°56' E 011°10'0 0.0
2017-Jul-16 18:59N 58°56' E 011°10'0 0.0
2017-Jul-16 18:30N 58°56' E 011°10'0 0.0
2017-Jul-16 18:00N 58°56' E 011°10'0 0.0
2017-Jul-16 17:30N 58°56' E 011°10'0 0.0
2017-Jul-16 17:00N 58°56' E 011°10'0 0.0
2017-Jul-16 16:30N 58°56' E 011°10'0 0.0
2017-Jul-16 16:00N 58°56' E 011°10'0 0.0
2017-Jul-16 15:30N 58°56' E 011°10'0 0.0
2017-Jul-16 15:00N 58°56' E 011°10'0 0.0
2017-Jul-16 14:30N 58°56' E 011°10'0 0.0
2017-Jul-16 14:00N 58°56' E 011°10'0 0.0
2017-Jul-16 13:30N 58°56' E 011°10'0 0.0
2017-Jul-16 13:00N 58°56' E 011°10'0 0.0
2017-Jul-16 12:30N 58°56' E 011°10'0 0.0
2017-Jul-16 12:00N 58°56' E 011°10'0 0.0
2017-Jul-16 11:30N 58°56' E 011°10'0 0.0
2017-Jul-16 11:00N 58°56' E 011°10'0 0.0
2017-Jul-16 10:30N 58°56' E 011°10'0 0.0
2017-Jul-16 10:00N 58°56' E 011°10'0 0.0
2017-Jul-16 09:30N 58°56' E 011°10'0 0.0
2017-Jul-16 09:00N 58°56' E 011°10'0 0.0
2017-Jul-16 08:30N 58°56' E 011°10'0 0.0
2017-Jul-16 08:00N 58°56' E 011°10'0 0.0
2017-Jul-16 07:30N 58°56' E 011°10'0 0.0
2017-Jul-16 07:00N 58°56' E 011°10'0 0.0
2017-Jul-16 06:30N 58°56' E 011°10'0 0.0
2017-Jul-16 06:00N 58°56' E 011°10'0 0.0
2017-Jul-16 05:30N 58°56' E 011°10'0 0.0
2017-Jul-16 05:00N 58°56' E 011°10'0 0.0
2017-Jul-16 04:30N 58°56' E 011°10'0 0.0
2017-Jul-16 04:00N 58°56' E 011°10'0 0.0
2017-Jul-16 03:30N 58°56' E 011°10'0 0.0
2017-Jul-16 03:00N 58°56' E 011°10'0 0.0
2017-Jul-16 02:30N 58°56' E 011°10'0 0.0
2017-Jul-16 02:00N 58°56' E 011°10'0 0.0
2017-Jul-16 01:30N 58°56' E 011°10'0 0.0
2017-Jul-16 01:00N 58°56' E 011°10'0 0.0
2017-Jul-16 00:30N 58°56' E 011°10'0 0.0
2017-Jul-16 00:00N 58°56' E 011°10'0 0.0
2017-Jul-15 23:30N 58°56' E 011°10'0 0.0
2017-Jul-15 23:00N 58°56' E 011°10'0 0.0
2017-Jul-15 22:30N 58°56' E 011°10'0 0.0
2017-Jul-15 22:00N 58°56' E 011°10'0 0.0
2017-Jul-15 21:30N 58°56' E 011°10'0 0.0
2017-Jul-15 21:00N 58°56' E 011°10'0 0.0
2017-Jul-15 20:30N 58°56' E 011°10'0 0.0
2017-Jul-15 20:00N 58°56' E 011°10'0 0.0
2017-Jul-15 19:30N 58°56' E 011°10'0 0.0
2017-Jul-15 19:00N 58°56' E 011°10'0 0.0
2017-Jul-15 18:30N 58°56' E 011°10'0 0.0
2017-Jul-15 18:00N 58°56' E 011°10'0 0.0
2017-Jul-15 17:30N 58°56' E 011°10'0 0.0
2017-Jul-15 17:00N 58°56' E 011°10'0 0.0
2017-Jul-15 16:30N 58°56' E 011°10'0 0.0
2017-Jul-15 16:00N 58°56' E 011°10'0 0.0
2017-Jul-15 15:30N 58°56' E 011°10'0 0.0
2017-Jul-15 15:00N 58°56' E 011°10'0 0.0
2017-Jul-15 14:00N 58°56' E 011°10'0 0.0
2017-Jul-15 13:30N 58°56' E 011°10'0 0.0
2017-Jul-15 13:00N 58°56' E 011°10'0 0.0
2017-Jul-15 12:30N 58°56' E 011°10'0 0.0
2017-Jul-15 12:00N 58°56' E 011°10'0 0.0
2017-Jul-15 11:30N 58°56' E 011°10'0 0.0
2017-Jul-15 11:00N 58°56' E 011°10'0 0.0
2017-Jul-15 10:30N 58°56' E 011°10'0 0.0
2017-Jul-15 10:00N 58°56' E 011°10'0 0.0
2017-Jul-15 09:30N 58°56' E 011°10'0 0.0
2017-Jul-15 09:00N 58°56' E 011°10'0 0.0
2017-Jul-15 08:30N 58°56' E 011°10'0 0.0
2017-Jul-15 08:00N 58°56' E 011°10'0 0.0
2017-Jul-15 07:30N 58°56' E 011°10'0 0.0
2017-Jul-15 07:00N 58°56' E 011°10'0 0.0
2017-Jul-15 06:30N 58°56' E 011°10'0 0.0
2017-Jul-15 06:00N 58°56' E 011°10'0 0.0
2017-Jul-15 05:30N 58°56' E 011°10'0 0.0
2017-Jul-15 05:00N 58°56' E 011°10'0 0.0
2017-Jul-15 04:30N 58°56' E 011°10'0 0.0
2017-Jul-15 04:00N 58°56' E 011°10'0 0.0
2017-Jul-15 03:30N 58°56' E 011°10'0 0.0
2017-Jul-15 03:00N 58°56' E 011°10'0 0.0
2017-Jul-15 02:30N 58°56' E 011°10'0 0.0
2017-Jul-15 02:00N 58°56' E 011°10'0 0.0
2017-Jul-15 01:30N 58°56' E 011°10'0 0.0
2017-Jul-15 01:00N 58°56' E 011°10'0 0.0
2017-Jul-15 00:30N 58°56' E 011°10'0 0.0
2017-Jul-15 00:00N 58°56' E 011°10'0 0.0
2017-Jul-14 23:30N 58°56' E 011°10'0 0.0
2017-Jul-14 23:00N 58°56' E 011°10'0 0.0
2017-Jul-14 22:30N 58°56' E 011°10'0 0.0
2017-Jul-14 22:00N 58°56' E 011°10'0 0.0
2017-Jul-14 21:30N 58°56' E 011°10'0 0.0
2017-Jul-14 21:00N 58°56' E 011°10'0 0.0
2017-Jul-14 20:30N 58°56' E 011°10'  

Dump ship's entire track history